createdAt,value
2023-04-30T00:01:58.976Z,57.16
2023-04-30T00:04:27.420Z,57.38
2023-04-30T00:06:55.930Z,57.34
2023-04-30T00:09:24.014Z,57.35
2023-04-30T00:11:52.190Z,57.42
2023-04-30T00:14:31.210Z,57.57
2023-04-30T00:16:59.298Z,57.51
2023-04-30T00:19:27.471Z,57.61
2023-04-30T00:21:55.443Z,57.64
2023-04-30T00:24:26.069Z,57.65
2023-04-30T00:26:54.157Z,57.55
2023-04-30T00:29:22.224Z,57.81
2023-04-30T00:31:50.332Z,57.78
2023-04-30T00:34:18.650Z,57.83
2023-04-30T00:36:47.077Z,57.79
2023-04-30T00:39:15.557Z,57.89
2023-04-30T00:41:43.734Z,57.89
2023-04-30T00:44:12.026Z,58.09
2023-04-30T00:46:41.014Z,58.03
2023-04-30T00:49:09.288Z,58.14
2023-04-30T00:51:40.953Z,58.14
2023-04-30T00:54:09.635Z,58.35
2023-04-30T00:56:38.031Z,58.30
2023-04-30T00:59:06.106Z,58.57
2023-04-30T01:01:34.211Z,58.59
2023-04-30T01:04:02.769Z,58.45
2023-04-30T01:06:31.805Z,58.41
2023-04-30T01:09:00.244Z,58.67
2023-04-30T01:11:51.440Z,58.76
2023-04-30T01:14:19.631Z,58.84
2023-04-30T01:16:51.462Z,59.01
2023-04-30T01:19:19.978Z,58.93
2023-04-30T01:21:49.382Z,58.94
2023-04-30T01:24:26.057Z,59.01
2023-04-30T01:27:13.085Z,58.88
2023-04-30T01:29:42.982Z,59.15
2023-04-30T01:32:11.765Z,59.02
2023-04-30T01:34:39.874Z,59.33
2023-04-30T01:37:11.099Z,59.35
2023-04-30T01:39:58.421Z,59.27
2023-04-30T01:42:34.159Z,59.35
2023-04-30T01:45:09.715Z,59.32
2023-04-30T01:47:46.597Z,59.42
2023-04-30T01:50:33.197Z,59.59
2023-04-30T01:53:03.011Z,59.59
2023-04-30T01:55:36.913Z,59.39
2023-04-30T01:58:10.833Z,59.67
2023-04-30T02:00:39.309Z,59.70
2023-04-30T02:03:08.424Z,59.70
2023-04-30T02:05:36.591Z,59.64
2023-04-30T02:08:05.190Z,59.86
2023-04-30T02:10:34.629Z,59.95
2023-04-30T02:13:04.149Z,60.15
2023-04-30T02:15:32.214Z,60.10
2023-04-30T02:18:00.615Z,60.22
2023-04-30T02:20:28.832Z,60.18
2023-04-30T02:22:57.112Z,60.17
2023-04-30T02:25:24.980Z,60.27
2023-04-30T02:27:53.170Z,60.42
2023-04-30T02:30:21.345Z,60.42
2023-04-30T02:32:49.658Z,60.47
2023-04-30T02:35:17.887Z,60.52
2023-04-30T02:37:45.980Z,60.48
2023-04-30T02:40:14.556Z,60.44
2023-04-30T02:42:54.305Z,60.68
2023-04-30T02:45:22.582Z,60.50
2023-04-30T02:47:50.954Z,60.51
2023-04-30T02:50:19.060Z,60.84
2023-04-30T02:52:49.681Z,60.70
2023-04-30T02:55:17.658Z,60.68
2023-04-30T02:57:45.833Z,60.68
2023-04-30T03:00:14.524Z,61.04
2023-04-30T03:02:42.782Z,60.96
2023-04-30T03:05:11.306Z,61.03
2023-04-30T03:07:39.358Z,61.12
2023-04-30T03:10:08.054Z,60.91
2023-04-30T03:12:36.128Z,61.14
2023-04-30T03:15:04.729Z,61.02
2023-04-30T03:17:32.780Z,61.13
2023-04-30T03:20:00.968Z,61.31
2023-04-30T03:22:29.145Z,61.14
2023-04-30T03:24:59.277Z,61.25
2023-04-30T03:27:27.455Z,61.41
2023-04-30T03:29:55.861Z,61.61
2023-04-30T03:32:24.598Z,61.69
2023-04-30T03:34:52.621Z,61.60
2023-04-30T03:37:20.900Z,61.56
2023-04-30T03:39:49.074Z,61.62
2023-04-30T03:42:17.353Z,61.70
2023-04-30T03:44:45.530Z,61.75
2023-04-30T03:47:13.914Z,61.88
2023-04-30T03:49:42.096Z,61.85
2023-04-30T03:52:10.266Z,61.82
2023-04-30T03:54:38.463Z,62.10
2023-04-30T03:57:08.172Z,62.20
2023-04-30T03:59:36.542Z,61.92
2023-04-30T04:02:04.899Z,62.23
2023-04-30T04:04:33.721Z,62.06
2023-04-30T04:07:03.436Z,62.03
2023-04-30T04:09:31.711Z,62.21
2023-04-30T04:12:02.243Z,62.13
2023-04-30T04:14:30.361Z,62.19
2023-04-30T04:17:00.243Z,62.21
2023-04-30T04:19:28.527Z,62.30
2023-04-30T04:21:57.836Z,62.30
2023-04-30T04:24:26.314Z,62.38
2023-04-30T04:26:54.495Z,62.43
2023-04-30T04:29:29.947Z,62.54
2023-04-30T04:31:58.205Z,62.52
2023-04-30T04:34:27.214Z,62.63
2023-04-30T04:36:55.701Z,62.46
2023-04-30T04:39:23.768Z,62.73
2023-04-30T04:41:52.100Z,62.73
2023-04-30T04:44:20.552Z,62.68
2023-04-30T04:46:48.993Z,62.92
2023-04-30T04:49:17.206Z,62.98
2023-04-30T04:51:45.284Z,63.18
2023-04-30T04:54:13.386Z,63.16
2023-04-30T04:56:41.660Z,63.21
2023-04-30T04:59:09.724Z,63.20
2023-04-30T05:01:38.166Z,63.34
2023-04-30T05:04:14.476Z,63.35
2023-04-30T05:06:43.105Z,63.18
2023-04-30T05:09:11.748Z,63.39
2023-04-30T05:11:41.714Z,63.34
2023-04-30T05:14:09.954Z,63.37
2023-04-30T05:16:38.100Z,63.46
2023-04-30T05:19:06.207Z,63.50
2023-04-30T05:21:34.369Z,63.44
2023-04-30T05:24:02.975Z,63.49
2023-04-30T05:26:30.835Z,63.51
2023-04-30T05:28:58.853Z,63.52
2023-04-30T05:31:26.884Z,63.51
2023-04-30T05:33:54.858Z,63.55
2023-04-30T05:36:22.826Z,63.67
2023-04-30T05:38:50.801Z,63.57
2023-04-30T05:41:19.000Z,63.55
2023-04-30T05:43:46.955Z,63.46
2023-04-30T05:46:14.860Z,63.65
2023-04-30T05:48:42.911Z,63.55
2023-04-30T05:51:11.031Z,63.42
2023-04-30T05:53:39.386Z,63.51
2023-04-30T05:56:08.934Z,63.63
2023-04-30T05:58:37.065Z,63.59
2023-04-30T06:01:05.647Z,63.66
2023-04-30T06:03:33.728Z,63.71
2023-04-30T06:06:02.160Z,63.69
2023-04-30T06:08:30.452Z,63.58
2023-04-30T06:10:58.780Z,63.40
2023-04-30T06:13:26.850Z,63.22
2023-04-30T06:15:54.921Z,62.87
2023-04-30T06:18:23.003Z,62.74
2023-04-30T06:20:51.188Z,62.65
2023-04-30T06:23:19.364Z,62.50
2023-04-30T06:25:47.434Z,62.28
2023-04-30T06:28:16.544Z,62.20
2023-04-30T06:30:44.639Z,61.97
2023-04-30T06:33:12.885Z,61.90
2023-04-30T06:35:41.178Z,62.00
2023-04-30T06:38:09.244Z,61.85
2023-04-30T06:40:37.328Z,61.83
2023-04-30T06:43:05.506Z,61.83
2023-04-30T06:45:33.732Z,61.64
2023-04-30T06:48:01.907Z,61.65
2023-04-30T06:50:30.002Z,61.51
2023-04-30T06:52:57.915Z,61.41
2023-04-30T06:55:26.714Z,61.32
2023-04-30T06:57:54.682Z,61.25
2023-04-30T07:00:22.764Z,61.08
2023-04-30T07:02:52.322Z,61.04
2023-04-30T07:05:20.653Z,60.96
2023-04-30T07:07:49.440Z,60.87
2023-04-30T07:10:17.414Z,60.83
2023-04-30T07:12:45.598Z,60.84
2023-04-30T07:15:13.599Z,60.83
2023-04-30T07:17:42.179Z,60.74
2023-04-30T07:20:11.667Z,60.88
2023-04-30T07:22:39.846Z,60.94
2023-04-30T07:25:08.433Z,60.76
2023-04-30T07:27:36.260Z,60.75
2023-04-30T07:30:04.987Z,60.64
2023-04-30T07:32:35.346Z,60.60
2023-04-30T07:35:04.539Z,60.62
2023-04-30T07:37:34.929Z,60.56
2023-04-30T07:40:04.988Z,60.57
2023-04-30T07:42:33.249Z,60.35
2023-04-30T07:45:01.226Z,60.34
2023-04-30T07:47:29.592Z,60.24
2023-04-30T07:49:57.941Z,60.15
2023-04-30T07:52:26.079Z,60.17
2023-04-30T07:54:54.156Z,60.11
2023-04-30T07:57:22.124Z,60.06
2023-04-30T07:59:52.295Z,59.93
2023-04-30T08:02:22.975Z,59.92
2023-04-30T08:04:51.711Z,59.75
2023-04-30T08:07:21.494Z,59.73
2023-04-30T08:09:49.372Z,59.51
2023-04-30T08:12:18.781Z,59.57
2023-04-30T08:14:47.056Z,59.46
2023-04-30T08:17:15.106Z,59.34
2023-04-30T08:19:43.114Z,59.29
2023-04-30T08:22:11.089Z,59.27
2023-04-30T08:24:39.720Z,59.06
2023-04-30T08:27:07.746Z,59.13
2023-04-30T08:29:36.026Z,59.05
2023-04-30T08:32:05.837Z,58.99
2023-04-30T08:34:34.493Z,58.94
2023-04-30T08:37:03.017Z,58.89
2023-04-30T08:39:31.205Z,58.82
2023-04-30T08:42:02.572Z,58.78
2023-04-30T08:44:33.502Z,58.68
2023-04-30T08:47:04.026Z,58.72
2023-04-30T08:49:33.523Z,58.58
2023-04-30T08:52:01.433Z,58.62
2023-04-30T08:54:33.780Z,58.52
2023-04-30T08:57:01.801Z,58.48
2023-04-30T08:59:30.551Z,58.32
2023-04-30T09:02:02.885Z,58.29
2023-04-30T09:04:31.113Z,58.29
2023-04-30T09:07:03.634Z,58.20
2023-04-30T09:09:38.913Z,58.04
2023-04-30T09:12:16.179Z,58.07
2023-04-30T09:15:00.101Z,58.10
2023-04-30T09:17:29.940Z,57.99
2023-04-30T09:20:08.594Z,57.88
2023-04-30T09:22:38.097Z,57.81
2023-04-30T09:25:07.597Z,57.76
2023-04-30T09:27:35.968Z,57.60
2023-04-30T09:30:04.903Z,57.59
2023-04-30T09:32:32.990Z,57.60
2023-04-30T09:35:01.023Z,57.47
2023-04-30T09:37:38.363Z,57.39
2023-04-30T09:40:07.021Z,57.40
2023-04-30T09:42:35.290Z,57.38
2023-04-30T09:45:05.814Z,57.29
2023-04-30T09:47:34.132Z,57.28
2023-04-30T09:50:02.279Z,57.13
2023-04-30T09:52:30.762Z,56.97
2023-04-30T09:54:58.841Z,56.99
2023-04-30T09:57:30.379Z,56.95
2023-04-30T09:59:58.904Z,56.84
2023-04-30T10:02:28.001Z,56.83
2023-04-30T10:04:58.719Z,56.72
2023-04-30T10:07:32.306Z,56.70
2023-04-30T10:10:10.603Z,56.60
2023-04-30T10:12:47.811Z,56.53
2023-04-30T10:15:17.845Z,56.37
2023-04-30T10:17:51.899Z,56.32
2023-04-30T10:20:21.259Z,56.36
2023-04-30T10:22:49.611Z,56.13
2023-04-30T10:25:17.720Z,56.17
2023-04-30T10:27:46.409Z,56.13
2023-04-30T10:30:16.317Z,56.06
2023-04-30T10:32:53.876Z,56.07
2023-04-30T10:35:28.288Z,55.99
2023-04-30T10:38:16.170Z,55.90
2023-04-30T10:40:47.691Z,55.83
2023-04-30T10:43:20.108Z,55.57
2023-04-30T10:45:48.748Z,55.46
2023-04-30T10:48:24.641Z,55.51
2023-04-30T10:51:01.728Z,55.56
2023-04-30T10:53:32.723Z,55.41
2023-04-30T10:56:09.704Z,55.35
2023-04-30T10:58:40.468Z,55.28
2023-04-30T11:01:12.782Z,55.34
2023-04-30T11:03:43.827Z,55.10
2023-04-30T11:06:16.297Z,55.15
2023-04-30T11:08:48.557Z,55.04
2023-04-30T11:11:21.667Z,55.03
2023-04-30T11:14:00.173Z,54.90
2023-04-30T11:16:32.263Z,54.86
2023-04-30T11:19:07.058Z,54.90
2023-04-30T11:21:35.182Z,54.76
2023-04-30T11:24:06.477Z,54.74
2023-04-30T11:27:04.755Z,54.72
2023-04-30T11:29:33.359Z,54.65
2023-04-30T11:32:01.931Z,54.49
2023-04-30T11:34:31.336Z,54.52
2023-04-30T11:37:01.264Z,54.46
2023-04-30T11:39:30.252Z,54.41
2023-04-30T11:41:58.243Z,54.37
2023-04-30T11:44:26.710Z,54.31
2023-04-30T11:46:54.933Z,54.21
2023-04-30T11:49:23.196Z,54.21
2023-04-30T11:51:52.108Z,54.12
2023-04-30T11:54:20.447Z,54.09
2023-04-30T11:56:49.044Z,53.98
2023-04-30T11:59:17.765Z,54.01
2023-04-30T12:01:45.963Z,54.00
2023-04-30T12:04:14.443Z,53.98
2023-04-30T12:06:43.103Z,53.87
2023-04-30T12:09:12.280Z,53.91
2023-04-30T12:11:40.772Z,53.82
2023-04-30T12:14:11.045Z,53.78
2023-04-30T12:16:51.296Z,53.66
2023-04-30T12:19:20.998Z,53.65
2023-04-30T12:21:49.931Z,53.48
2023-04-30T12:24:19.066Z,53.30
2023-04-30T12:26:48.295Z,53.09
2023-04-30T12:29:17.574Z,52.75
2023-04-30T12:31:46.032Z,52.78
2023-04-30T12:34:15.012Z,52.78
2023-04-30T12:36:43.435Z,52.69
2023-04-30T12:39:17.666Z,52.76
2023-04-30T12:41:46.967Z,52.40
2023-04-30T12:44:18.923Z,52.18
2023-04-30T12:46:50.581Z,51.79
2023-04-30T12:49:26.082Z,51.78
2023-04-30T12:52:04.950Z,51.62
2023-04-30T12:54:33.572Z,51.41
2023-04-30T12:57:03.709Z,51.34
2023-04-30T12:59:32.767Z,51.41
2023-04-30T13:02:11.529Z,51.22
2023-04-30T13:04:40.489Z,50.61
2023-04-30T13:07:08.770Z,51.04
2023-04-30T13:09:37.454Z,50.69
2023-04-30T13:12:06.477Z,50.80
2023-04-30T13:14:35.032Z,50.58
2023-04-30T13:17:05.961Z,50.47
2023-04-30T13:19:35.384Z,50.37
2023-04-30T13:22:03.372Z,50.23
2023-04-30T13:24:31.398Z,50.36
2023-04-30T13:27:00.026Z,50.09
2023-04-30T13:29:28.148Z,49.91
2023-04-30T13:31:56.295Z,49.85
2023-04-30T13:34:24.733Z,49.79
2023-04-30T13:36:53.666Z,49.62
2023-04-30T13:39:22.115Z,49.27
2023-04-30T13:41:50.646Z,48.99
2023-04-30T13:44:18.686Z,48.93
2023-04-30T13:46:46.946Z,48.87
2023-04-30T13:49:15.172Z,48.69
2023-04-30T13:51:43.155Z,48.76
2023-04-30T13:54:11.429Z,48.69
2023-04-30T13:56:39.403Z,48.34
2023-04-30T13:59:07.488Z,48.01
2023-04-30T14:01:35.550Z,47.72
2023-04-30T14:04:03.487Z,47.93
2023-04-30T14:06:32.438Z,47.68
2023-04-30T14:09:00.606Z,47.47
2023-04-30T14:11:28.579Z,47.47
2023-04-30T14:13:56.749Z,47.25
2023-04-30T14:16:25.595Z,47.21
2023-04-30T14:18:53.517Z,47.18
2023-04-30T14:21:21.491Z,47.13
2023-04-30T14:23:49.507Z,46.79
2023-04-30T14:26:17.757Z,46.74
2023-04-30T14:28:46.041Z,46.57
2023-04-30T14:31:14.216Z,46.36
2023-04-30T14:33:42.184Z,46.41
2023-04-30T14:36:10.358Z,46.06
2023-04-30T14:38:38.345Z,46.02
2023-04-30T14:41:06.516Z,45.98
2023-04-30T14:43:34.700Z,45.79
2023-04-30T14:46:03.627Z,45.56
2023-04-30T14:48:33.007Z,45.68
2023-04-30T14:51:01.419Z,45.28
2023-04-30T14:53:29.336Z,45.22
2023-04-30T14:55:57.295Z,44.89
2023-04-30T14:58:25.620Z,44.76
2023-04-30T15:00:53.808Z,44.97
2023-04-30T15:03:21.962Z,44.68
2023-04-30T15:05:50.359Z,44.67
2023-04-30T15:08:18.242Z,44.44
2023-04-30T15:10:46.314Z,44.30
2023-04-30T15:13:15.017Z,44.35
2023-04-30T15:15:43.183Z,44.37
2023-04-30T15:18:11.285Z,44.09
2023-04-30T15:20:39.332Z,43.90
2023-04-30T15:23:08.329Z,43.70
2023-04-30T15:25:36.300Z,43.83
2023-04-30T15:28:04.589Z,43.74
2023-04-30T15:30:32.611Z,43.73
2023-04-30T15:33:00.893Z,43.65
2023-04-30T15:35:29.022Z,43.61
2023-04-30T15:37:57.196Z,43.63
2023-04-30T15:40:25.246Z,43.37
2023-04-30T15:42:53.252Z,43.48
2023-04-30T15:45:21.220Z,43.25
2023-04-30T15:47:50.784Z,43.34
2023-04-30T15:50:18.918Z,43.19
2023-04-30T15:52:47.089Z,43.10
2023-04-30T15:55:15.165Z,43.21
2023-04-30T15:57:43.256Z,43.10
2023-04-30T16:00:12.892Z,43.14
2023-04-30T16:02:41.215Z,43.10
2023-04-30T16:05:09.734Z,42.98
2023-04-30T16:07:38.220Z,42.89
2023-04-30T16:10:07.225Z,43.02
2023-04-30T16:12:35.199Z,42.93
2023-04-30T16:15:06.036Z,42.93
2023-04-30T16:17:34.184Z,42.90
2023-04-30T16:20:02.194Z,42.83
2023-04-30T16:22:30.466Z,42.98
2023-04-30T16:24:58.851Z,43.09
2023-04-30T16:27:26.717Z,43.09
2023-04-30T16:29:55.493Z,43.09
2023-04-30T16:32:23.697Z,43.09
2023-04-30T16:34:52.375Z,43.04
2023-04-30T16:37:20.357Z,42.85
2023-04-30T16:39:48.436Z,42.88
2023-04-30T16:42:16.402Z,42.98
2023-04-30T16:44:44.703Z,42.93
2023-04-30T16:47:13.375Z,42.90
2023-04-30T16:49:41.443Z,43.13
2023-04-30T16:52:09.832Z,43.04
2023-04-30T16:54:37.805Z,43.06
2023-04-30T16:57:05.909Z,43.11
2023-04-30T16:59:33.871Z,42.99
2023-04-30T17:02:02.862Z,43.01
2023-04-30T17:04:31.345Z,43.14
2023-04-30T17:06:59.839Z,43.07
2023-04-30T17:09:27.814Z,43.11
2023-04-30T17:11:55.885Z,43.16
2023-04-30T17:14:23.859Z,43.18
2023-04-30T17:16:52.036Z,43.17
2023-04-30T17:19:19.915Z,43.26
2023-04-30T17:21:47.853Z,43.29
2023-04-30T17:24:15.854Z,43.24
2023-04-30T17:26:43.837Z,43.44
2023-04-30T17:29:11.911Z,43.45
2023-04-30T17:31:39.919Z,43.63
2023-04-30T17:34:08.361Z,43.68
2023-04-30T17:36:36.757Z,43.62
2023-04-30T17:39:05.965Z,43.87
2023-04-30T17:41:34.344Z,43.87
2023-04-30T17:44:02.320Z,43.89
2023-04-30T17:46:30.360Z,44.00
2023-04-30T17:49:01.797Z,44.05
2023-04-30T17:51:31.679Z,44.14
2023-04-30T17:54:00.073Z,44.22
2023-04-30T17:56:31.533Z,44.41
2023-04-30T17:59:00.200Z,44.48
2023-04-30T18:01:28.349Z,44.59
2023-04-30T18:03:59.497Z,44.67
2023-04-30T18:06:28.284Z,44.81
2023-04-30T18:08:56.392Z,44.98
2023-04-30T18:11:24.572Z,45.13
2023-04-30T18:13:52.541Z,45.24
2023-04-30T18:16:20.778Z,45.35
2023-04-30T18:18:48.997Z,45.48
2023-04-30T18:21:17.494Z,45.65
2023-04-30T18:23:45.462Z,45.68
2023-04-30T18:26:13.354Z,45.77
2023-04-30T18:28:42.054Z,45.99
2023-04-30T18:31:11.755Z,46.09
2023-04-30T18:33:40.324Z,46.13
2023-04-30T18:36:08.608Z,46.29
2023-04-30T18:38:38.875Z,46.37
2023-04-30T18:41:07.481Z,46.52
2023-04-30T18:43:37.659Z,46.62
2023-04-30T18:46:06.178Z,46.76
2023-04-30T18:48:34.213Z,46.87
2023-04-30T18:51:02.286Z,46.98
2023-04-30T18:53:30.273Z,47.03
2023-04-30T18:55:58.354Z,47.14
2023-04-30T18:58:26.621Z,47.20
2023-04-30T19:00:58.154Z,47.29
2023-04-30T19:03:26.366Z,47.33
2023-04-30T19:05:56.818Z,47.36
2023-04-30T19:08:24.884Z,47.45
2023-04-30T19:10:54.163Z,47.45
2023-04-30T19:13:22.080Z,47.59
2023-04-30T19:15:50.230Z,47.55
2023-04-30T19:18:18.907Z,47.65
2023-04-30T19:20:57.543Z,47.72
2023-04-30T19:23:26.012Z,47.82
2023-04-30T19:25:54.030Z,47.77
2023-04-30T19:28:22.056Z,47.85
2023-04-30T19:30:54.499Z,47.96
2023-04-30T19:33:23.284Z,48.01
2023-04-30T19:35:53.557Z,48.01
2023-04-30T19:38:22.064Z,48.09
2023-04-30T19:40:52.163Z,48.12
2023-04-30T19:43:21.173Z,48.24
2023-04-30T19:45:53.055Z,48.20
2023-04-30T19:48:22.038Z,48.23
2023-04-30T19:50:51.549Z,48.35
2023-04-30T19:53:21.248Z,48.41
2023-04-30T19:55:49.129Z,48.45
2023-04-30T19:58:17.201Z,48.48
2023-04-30T20:00:46.048Z,48.55
2023-04-30T20:03:14.846Z,48.72
2023-04-30T20:05:44.087Z,48.82
2023-04-30T20:08:12.674Z,48.82
2023-04-30T20:10:41.588Z,48.92
2023-04-30T20:13:09.659Z,48.95
2023-04-30T20:15:37.828Z,49.09
2023-04-30T20:18:06.230Z,49.13
2023-04-30T20:20:34.149Z,49.24
2023-04-30T20:23:11.777Z,49.32
2023-04-30T20:25:40.984Z,49.41
2023-04-30T20:28:08.899Z,49.43
2023-04-30T20:30:36.936Z,49.51
2023-04-30T20:33:05.048Z,49.58
2023-04-30T20:35:33.090Z,49.62
2023-04-30T20:38:01.571Z,49.66
2023-04-30T20:40:29.842Z,49.70
2023-04-30T20:42:57.931Z,49.74
2023-04-30T20:45:25.905Z,49.78
2023-04-30T20:47:54.120Z,49.77
2023-04-30T20:50:22.261Z,49.94
2023-04-30T20:52:50.540Z,50.02
2023-04-30T20:55:19.338Z,50.01
2023-04-30T20:57:47.515Z,50.03
2023-04-30T21:00:15.598Z,50.09
2023-04-30T21:02:43.648Z,50.13
2023-04-30T21:05:11.774Z,50.18
2023-04-30T21:07:39.715Z,50.18
2023-04-30T21:10:09.020Z,50.32
2023-04-30T21:12:37.007Z,50.31
2023-04-30T21:15:05.899Z,50.32
2023-04-30T21:17:33.788Z,50.37
2023-04-30T21:20:02.068Z,50.40
2023-04-30T21:22:31.815Z,50.38
2023-04-30T21:24:59.745Z,50.45
2023-04-30T21:27:28.236Z,50.48
2023-04-30T21:29:56.727Z,50.47
2023-04-30T21:32:24.934Z,50.54
2023-04-30T21:34:52.970Z,50.50
2023-04-30T21:37:20.943Z,50.56
2023-04-30T21:39:48.939Z,50.60
2023-04-30T21:42:16.998Z,50.65
2023-04-30T21:44:45.117Z,50.68
2023-04-30T21:47:13.267Z,50.74
2023-04-30T21:49:42.773Z,50.82
2023-04-30T21:52:11.855Z,50.77
2023-04-30T21:54:39.832Z,50.85
2023-04-30T21:57:07.980Z,50.79
2023-04-30T21:59:35.993Z,50.82
2023-04-30T22:02:13.090Z,50.93
2023-04-30T22:04:50.670Z,50.85
2023-04-30T22:07:19.340Z,50.96
2023-04-30T22:09:47.825Z,50.91
2023-04-30T22:12:15.810Z,50.95
2023-04-30T22:14:45.618Z,50.95
2023-04-30T22:17:13.799Z,50.89
2023-04-30T22:19:41.834Z,50.95
2023-04-30T22:22:09.851Z,51.02
2023-04-30T22:24:38.037Z,50.97
2023-04-30T22:27:06.316Z,50.98
2023-04-30T22:29:34.503Z,51.00
2023-04-30T22:32:02.796Z,51.07
2023-04-30T22:34:38.318Z,51.13
2023-04-30T22:37:07.011Z,51.18
2023-04-30T22:39:34.918Z,51.26
2023-04-30T22:42:03.362Z,51.19
2023-04-30T22:44:31.636Z,51.24
2023-04-30T22:46:59.718Z,51.34
2023-04-30T22:49:31.682Z,51.41
2023-04-30T22:52:00.274Z,51.37
2023-04-30T22:54:28.773Z,51.39
2023-04-30T22:56:56.936Z,51.41
2023-04-30T22:59:24.917Z,51.44
2023-04-30T23:01:53.519Z,51.39
2023-04-30T23:04:21.612Z,51.45
2023-04-30T23:06:49.767Z,51.39
2023-04-30T23:09:19.381Z,51.40
2023-04-30T23:11:48.452Z,51.41
2023-04-30T23:14:16.960Z,51.48
2023-04-30T23:16:45.011Z,51.51
2023-04-30T23:19:13.322Z,51.47
2023-04-30T23:21:41.598Z,51.54
2023-04-30T23:24:09.490Z,51.60
2023-04-30T23:26:37.544Z,51.55
2023-04-30T23:29:05.629Z,51.50
2023-04-30T23:31:33.531Z,51.61
2023-04-30T23:34:01.679Z,51.64
2023-04-30T23:36:29.957Z,51.67
2023-04-30T23:38:57.976Z,51.71
2023-04-30T23:41:26.325Z,51.69
2023-04-30T23:43:54.295Z,51.64
2023-04-30T23:46:22.821Z,51.68
2023-04-30T23:48:50.952Z,51.67
2023-04-30T23:51:19.240Z,51.72
2023-04-30T23:53:47.236Z,51.67
2023-04-30T23:56:15.380Z,51.70
2023-04-30T23:58:43.979Z,51.69
